createdAt,value
2017-08-08T00:04:06.126Z,2.77
2017-08-08T00:09:07.845Z,2.90
2017-08-08T00:14:09.589Z,3.40
2017-08-08T00:19:11.290Z,2.60
2017-08-08T00:24:13.036Z,2.67
2017-08-08T00:29:14.815Z,3.30
2017-08-08T00:34:16.546Z,3.10
2017-08-08T00:39:18.302Z,3.07
2017-08-08T00:44:20.071Z,2.73
2017-08-08T00:49:21.850Z,3.13
2017-08-08T00:54:23.658Z,3.03
2017-08-08T00:59:25.386Z,3.43
2017-08-08T01:04:27.167Z,3.47
2017-08-08T01:09:28.884Z,3.60
2017-08-08T01:14:31.358Z,3.40
2017-08-08T01:19:34.827Z,3.63
2017-08-08T01:24:37.354Z,4.10
2017-08-08T01:29:39.092Z,3.33
2017-08-08T01:34:40.843Z,3.70
2017-08-08T01:39:42.587Z,3.97
2017-08-08T01:44:44.327Z,4.13
2017-08-08T01:49:46.103Z,3.93
2017-08-08T01:54:47.842Z,4.63
2017-08-08T01:59:49.576Z,3.97
2017-08-08T02:04:51.387Z,4.00
2017-08-08T02:09:53.256Z,4.87
2017-08-08T02:14:55.828Z,3.97
2017-08-08T02:19:58.331Z,3.93
2017-08-08T02:25:00.084Z,4.57
2017-08-08T02:30:01.834Z,4.10
2017-08-08T02:35:03.604Z,4.57
2017-08-08T02:40:05.302Z,4.23
2017-08-08T02:45:07.039Z,4.57
2017-08-08T02:50:09.523Z,4.57
2017-08-08T02:55:11.270Z,4.60
2017-08-08T03:00:13.033Z,4.73
2017-08-08T03:05:14.850Z,4.67
2017-08-08T03:10:16.686Z,4.57
2017-08-08T03:15:18.411Z,4.77
2017-08-08T03:20:20.878Z,4.73
2017-08-08T03:25:22.654Z,5.00
2017-08-08T03:30:24.421Z,4.40
2017-08-08T03:35:26.200Z,5.30
2017-08-08T03:40:27.920Z,5.13
2017-08-08T03:45:29.646Z,5.53
2017-08-08T03:50:31.424Z,6.00
2017-08-08T03:55:33.168Z,5.30
2017-08-08T04:00:34.911Z,5.90
2017-08-08T04:05:36.695Z,7.83
2017-08-08T04:10:39.378Z,6.23
2017-08-08T04:15:41.096Z,6.03
2017-08-08T04:20:42.831Z,5.87
2017-08-08T04:25:44.534Z,5.83
2017-08-08T04:30:46.267Z,5.87
2017-08-08T04:35:48.005Z,5.90
2017-08-08T04:40:49.758Z,6.37
2017-08-08T04:45:51.545Z,6.07
2017-08-08T04:50:53.343Z,5.83
2017-08-08T04:55:55.092Z,5.13
2017-08-08T05:00:56.855Z,5.70
2017-08-08T05:05:58.658Z,6.47
2017-08-08T05:11:00.397Z,5.50
2017-08-08T05:16:02.171Z,5.10
2017-08-08T05:21:03.919Z,5.30
2017-08-08T05:26:05.648Z,5.00
2017-08-08T05:31:07.377Z,5.50
2017-08-08T05:36:09.119Z,5.73
2017-08-08T05:41:10.854Z,6.00
2017-08-08T05:46:12.598Z,6.17
2017-08-08T05:51:14.337Z,5.60
2017-08-08T05:56:16.179Z,5.03
2017-08-08T06:01:17.900Z,5.80
2017-08-08T06:06:19.712Z,5.00
2017-08-08T06:11:22.224Z,5.50
2017-08-08T06:16:24.008Z,5.13
2017-08-08T06:21:26.480Z,5.10
2017-08-08T06:26:28.226Z,5.70
2017-08-08T06:31:29.970Z,5.00
2017-08-08T06:36:31.719Z,4.87
2017-08-08T06:41:33.461Z,5.57
2017-08-08T06:46:35.198Z,4.73
2017-08-08T06:51:37.852Z,4.73
2017-08-08T06:56:39.613Z,4.70
2017-08-08T07:01:41.364Z,4.83
2017-08-08T07:06:43.170Z,4.23
2017-08-08T07:11:44.967Z,5.00
2017-08-08T07:16:46.707Z,4.40
2017-08-08T07:21:48.476Z,3.90
2017-08-08T07:26:50.941Z,4.60
2017-08-08T07:31:52.693Z,4.47
2017-08-08T07:36:54.481Z,5.77
2017-08-08T07:41:56.237Z,4.07
2017-08-08T07:46:58.030Z,3.90
2017-08-08T07:51:59.767Z,3.63
2017-08-08T07:57:02.296Z,3.40
2017-08-08T08:02:04.038Z,3.73
2017-08-08T08:07:05.807Z,4.27
2017-08-08T08:12:08.462Z,3.60
2017-08-08T08:17:10.933Z,3.30
2017-08-08T08:22:13.387Z,4.43
2017-08-08T08:27:15.146Z,2.97
2017-08-08T08:32:16.928Z,3.30
2017-08-08T08:37:18.658Z,3.40
2017-08-08T08:42:20.444Z,3.53
2017-08-08T08:47:22.194Z,3.50
2017-08-08T08:52:24.023Z,3.03
2017-08-08T08:57:25.784Z,3.20
2017-08-08T09:02:28.292Z,3.23
2017-08-08T09:07:30.067Z,3.00
2017-08-08T09:12:31.819Z,2.90
2017-08-08T09:17:33.570Z,2.97
2017-08-08T09:22:35.336Z,3.57
2017-08-08T09:27:37.822Z,3.17
2017-08-08T09:32:39.547Z,3.47
2017-08-08T09:37:41.314Z,2.57
2017-08-08T09:42:43.071Z,2.67
2017-08-08T09:47:44.878Z,2.53
2017-08-08T09:52:46.611Z,2.60
2017-08-08T09:57:48.358Z,2.93
2017-08-08T10:02:50.091Z,2.60
2017-08-08T10:07:51.880Z,2.77
2017-08-08T10:12:53.652Z,2.73
2017-08-08T10:17:55.362Z,2.60
2017-08-08T10:22:57.822Z,2.47
2017-08-08T10:28:00.299Z,3.27
2017-08-08T10:33:02.058Z,3.13
2017-08-08T10:38:03.803Z,3.03
2017-08-08T10:43:05.511Z,3.20
2017-08-08T10:48:07.271Z,3.03
2017-08-08T10:53:09.013Z,3.10
2017-08-08T10:58:10.726Z,3.57
2017-08-08T11:03:12.453Z,3.20
2017-08-08T11:08:14.286Z,3.70
2017-08-08T11:13:16.048Z,3.13
2017-08-08T11:18:17.772Z,3.10
2017-08-08T11:23:19.513Z,3.07
2017-08-08T11:28:21.259Z,3.20
2017-08-08T11:33:23.015Z,3.27
2017-08-08T11:38:24.804Z,3.57
2017-08-08T11:43:26.554Z,3.13
2017-08-08T11:48:28.340Z,3.37
2017-08-08T11:53:30.082Z,3.17
2017-08-08T11:58:31.818Z,3.77
2017-08-08T12:03:33.637Z,3.63
2017-08-08T12:08:35.366Z,4.20
2017-08-08T12:13:37.191Z,4.33
2017-08-08T12:18:38.945Z,3.77
2017-08-08T12:23:40.686Z,3.77
2017-08-08T12:28:42.415Z,3.70
2017-08-08T12:33:44.352Z,4.27
2017-08-08T12:38:46.096Z,3.63
2017-08-08T12:43:47.818Z,3.70
2017-08-08T12:48:49.634Z,4.13
2017-08-08T12:53:51.387Z,3.90
2017-08-08T12:58:53.153Z,3.70
2017-08-08T13:03:54.945Z,4.00
2017-08-08T13:08:56.703Z,3.80
2017-08-08T13:13:58.448Z,3.90
2017-08-08T13:19:00.210Z,3.83
2017-08-08T13:24:01.941Z,4.30
2017-08-08T13:29:03.703Z,4.00
2017-08-08T13:34:05.447Z,4.50
2017-08-08T13:39:07.216Z,5.17
2017-08-08T13:44:08.937Z,5.37
2017-08-08T13:49:10.670Z,7.00
2017-08-08T13:54:12.440Z,5.20
2017-08-08T13:59:14.157Z,7.27
2017-08-08T14:04:15.995Z,6.00
2017-08-08T14:09:24.698Z,6.40
2017-08-08T14:14:26.474Z,6.50
2017-08-08T14:19:28.281Z,6.60
2017-08-08T14:24:30.017Z,5.43
2017-08-08T14:29:31.756Z,6.20
2017-08-08T14:34:33.499Z,5.90
2017-08-08T14:39:35.231Z,6.80
2017-08-08T14:44:37.043Z,6.53
2017-08-08T14:49:38.796Z,6.67
2017-08-08T14:54:40.519Z,6.80
2017-08-08T14:59:42.261Z,6.67
2017-08-08T15:04:43.999Z,6.97
2017-08-08T15:09:46.790Z,7.00
2017-08-08T15:14:48.495Z,7.50
2017-08-08T15:19:50.211Z,6.50
2017-08-08T15:24:51.970Z,6.17
2017-08-08T15:29:53.710Z,7.33
2017-08-08T15:34:55.490Z,6.60
2017-08-08T15:39:57.228Z,6.40
2017-08-08T15:44:59.011Z,7.40
2017-08-08T15:50:00.848Z,6.50
2017-08-08T15:55:02.676Z,6.80
2017-08-08T16:00:04.438Z,6.10
2017-08-08T16:05:06.231Z,6.27
2017-08-08T16:10:07.966Z,6.53
2017-08-08T16:15:09.714Z,7.03
2017-08-08T16:20:11.451Z,7.07
2017-08-08T16:25:13.202Z,6.67
2017-08-08T16:30:15.937Z,7.20
2017-08-08T16:35:17.659Z,7.13
2017-08-08T16:40:19.377Z,7.77
2017-08-08T16:45:21.142Z,7.27
2017-08-08T16:50:22.851Z,7.60
2017-08-08T16:55:24.585Z,6.80
2017-08-08T17:00:26.359Z,6.30
2017-08-08T17:05:28.174Z,6.30
2017-08-08T17:10:29.926Z,6.00
2017-08-08T17:15:31.738Z,4.90
2017-08-08T17:20:33.478Z,5.17
2017-08-08T17:25:35.203Z,5.33
2017-08-08T17:30:37.667Z,5.23
2017-08-08T17:35:39.459Z,4.97
2017-08-08T17:40:41.178Z,4.93
2017-08-08T17:45:42.889Z,5.03
2017-08-08T17:50:45.332Z,5.00
2017-08-08T17:55:47.059Z,5.20
2017-08-08T18:00:48.790Z,5.30
2017-08-08T18:05:50.541Z,4.70
2017-08-08T18:10:52.276Z,4.30
2017-08-08T18:15:53.968Z,4.17
2017-08-08T18:20:55.723Z,3.37
2017-08-08T18:25:57.466Z,4.00
2017-08-08T18:30:59.248Z,4.57
2017-08-08T18:36:00.991Z,5.00
2017-08-08T18:41:02.795Z,4.97
2017-08-08T18:46:05.268Z,4.07
2017-08-08T18:51:06.997Z,4.30
2017-08-08T18:56:08.717Z,3.77
2017-08-08T19:01:10.430Z,4.70
2017-08-08T19:06:13.203Z,4.00
2017-08-08T19:11:14.987Z,4.40
2017-08-08T19:16:17.438Z,4.80
2017-08-08T19:21:19.170Z,3.80
2017-08-08T19:26:20.886Z,5.03
2017-08-08T19:31:22.676Z,5.47
2017-08-08T19:36:24.400Z,4.50
2017-08-08T19:41:26.158Z,5.30
2017-08-08T19:46:27.912Z,5.10
2017-08-08T19:51:29.764Z,5.50
2017-08-08T19:56:32.298Z,6.50
2017-08-08T20:01:34.108Z,5.40
2017-08-08T20:06:35.912Z,6.10
2017-08-08T20:11:37.695Z,5.97
2017-08-08T20:16:39.426Z,5.43
2017-08-08T20:21:41.940Z,5.20
2017-08-08T20:26:43.674Z,4.80
2017-08-08T20:31:45.411Z,5.50
2017-08-08T20:36:47.158Z,5.30
2017-08-08T20:41:48.891Z,5.63
2017-08-08T20:46:50.604Z,5.60
2017-08-08T20:51:52.340Z,5.30
2017-08-08T20:56:54.090Z,5.57
2017-08-08T21:01:55.829Z,6.70
2017-08-08T21:06:57.660Z,6.43
2017-08-08T21:11:59.407Z,8.13
2017-08-08T21:17:01.187Z,9.50
2017-08-08T21:22:02.906Z,11.30
2017-08-08T21:27:04.634Z,11.80
2017-08-08T21:32:06.378Z,12.73
2017-08-08T21:37:08.154Z,14.60
2017-08-08T21:42:10.670Z,15.03
2017-08-08T21:47:12.381Z,16.37
2017-08-08T21:52:14.101Z,17.60
2017-08-08T21:57:15.860Z,16.10
2017-08-08T22:02:17.614Z,15.93
2017-08-08T22:07:19.410Z,17.13
2017-08-08T22:12:21.121Z,15.80
2017-08-08T22:17:22.849Z,16.63
2017-08-08T22:22:24.554Z,17.33
2017-08-08T22:27:26.358Z,18.20
2017-08-08T22:32:28.099Z,20.57
2017-08-08T22:37:29.826Z,19.97
2017-08-08T22:42:31.591Z,17.87
2017-08-08T22:47:34.073Z,18.93
2017-08-08T22:52:35.854Z,16.07
2017-08-08T22:57:37.611Z,17.40
2017-08-08T23:02:39.330Z,16.17
2017-08-08T23:07:41.122Z,15.50
2017-08-08T23:12:43.578Z,13.80
2017-08-08T23:17:45.337Z,13.00
2017-08-08T23:22:47.058Z,12.53
2017-08-08T23:27:49.563Z,12.30
2017-08-08T23:32:51.312Z,12.20
2017-08-08T23:37:53.034Z,10.93
2017-08-08T23:42:54.745Z,10.10
2017-08-08T23:47:57.249Z,13.03
2017-08-08T23:52:59.024Z,11.63
2017-08-08T23:58:00.841Z,13.27
